Algiers Airport, Algeria

3:11 PM CET on August 28, 2016 (GMT +0100)
Houari Boumediene | | Change Station

Elev 82 ft 36.69 °N, 3.22 °E | Updated 11 minutes ago

Partly Cloudy
Partly Cloudy
91 °F
Feels Like 94 °F
N
9
Wind Variable Wind from NNE

Today
High -- | Low -- °F
--% Chance of Precip.
Yesterday
High -- | Low -- °F
Precip. -- in
Pressure 30.09 in
Visibility 6.2 miles
Clouds Few 3000 ft
Heat Index 94 °F
Dew Point 66 °F
Humidity 43%
Rainfall 0.00 in
Snow Depth Not available.
6:15 AM 7:20 PM
Waning Crescent, 15% visible
METAR DAAG 281400Z 03008KT 350V060 9999 FEW030 33/19 Q1019
Pressure 30.09 in
Visibility 6.2 miles
Clouds Few 3000 ft
Heat Index 94 °F
Dew Point 66 °F
Humidity 43%
Rainfall 0.00 in
Snow Depth Not available.
6:15 AM 7:20 PM
Waning Crescent, 15% visible
METAR DAAG 281400Z 03008KT 350V060 9999 FEW030 33/19 Q1019

10-Day Weather Forecast

No radar image for this location.
×

Almanac

Astronomy

Aug. 28, 2016 Rise Set
Actual Time
Civil Twilight
Nautical Twilight
Astronomical Twilight
Moon
Length of Visible Light
Length of Day
Tomorrow will be .
, % of the Moon is Illuminated

Today's Extremes

Country Highs Country Lows

Community

WunderPhotos

Upload Photos

1,935,574 photos uploaded!

WunderBlog® & News

Nearby

Air Quality

  Air Quality AQ Index Pollutant
Not available.

Snow Depth

Station Depth Elevation

Earthquake Activity

City Distance Mag. Time & Date
Minimum magnitude displayed is 2.5.

Coastal Water Temperatures

Place Temperature

Stations

Nearby Weather Stations

Station Location Temp. Windchill Dew Point Humidity Wind Precip. Elev Updated Type